Time;durP1;ratioP1;P1;durP2;ratioP2;P2;SDS_P1;SDS_P2;PMS_P1;PMS_P2;Temp;Humidity;BMP_temperature;BMP_pressure;BME280_temperature;BME280_humidity;BME280_pressure;Samples;Min_cycle;Max_cycle;Signal;HPM_P1;HPM_P2
2022/03/08 00:01:23;;;;;;;35.20;21.33;;;1.50;77.20;;;;;;4805339;29;20084;-71
2022/03/08 00:03:50;;;;;;;38.42;21.20;;;1.50;77.10;;;;;;4805647;29;20070;-72
2022/03/08 00:06:18;;;;;;;35.67;21.50;;;1.40;77.20;;;;;;4804950;29;20540;-71
2022/03/08 00:08:46;;;;;;;35.75;21.85;;;1.30;77.30;;;;;;4804060;29;20066;-72
2022/03/08 00:11:16;;;;;;;38.17;22.48;;;1.30;77.70;;;;;;4805645;29;20490;-72
2022/03/08 00:13:44;;;;;;;39.67;22.63;;;1.30;78.20;;;;;;4805214;29;20073;-72
2022/03/08 00:16:12;;;;;;;45.40;23.52;;;1.20;78.70;;;;;;4804632;29;20058;-72
2022/03/08 00:18:40;;;;;;;38.38;21.02;;;1.20;78.90;;;;;;4805066;29;20051;-71
2022/03/08 00:21:07;;;;;;;42.67;23.30;;;1.20;79.10;;;;;;4804257;29;20062;-72
2022/03/08 00:23:35;;;;;;;35.17;21.30;;;1.10;79.20;;;;;;4819006;29;20042;-72
2022/03/08 00:26:03;;;;;;;40.42;22.77;;;1.00;79.60;;;;;;4800659;29;20058;-72
2022/03/08 00:28:32;;;;;;;39.97;21.60;;;1.00;79.80;;;;;;4794459;29;20539;-72
2022/03/08 00:31:00;;;;;;;53.60;21.52;;;1.00;80.20;;;;;;4800792;29;20051;-72
2022/03/08 00:33:28;;;;;;;43.47;24.02;;;1.00;80.30;;;;;;4803776;29;20078;-72
2022/03/08 00:35:56;;;;;;;44.28;23.20;;;0.90;80.30;;;;;;4804885;29;20062;-72
2022/03/08 00:38:25;;;;;;;42.33;23.05;;;0.90;80.50;;;;;;4803610;29;20058;-72
2022/03/08 00:40:52;;;;;;;39.97;21.15;;;0.90;80.70;;;;;;4805061;29;20058;-72
2022/03/08 00:43:20;;;;;;;44.72;23.40;;;0.80;80.80;;;;;;4803950;29;20047;-72
2022/03/08 00:45:48;;;;;;;43.40;23.23;;;0.80;81.00;;;;;;4804487;29;20051;-72
2022/03/08 00:48:15;;;;;;;46.15;21.92;;;0.80;81.30;;;;;;4802773;29;20051;-72
2022/03/08 00:50:43;;;;;;;45.78;24.45;;;0.80;81.30;;;;;;4778438;30;20521;-71
2022/03/08 00:53:12;;;;;;;39.88;23.92;;;0.80;81.20;;;;;;4800541;29;20081;-72
2022/03/08 00:55:40;;;;;;;40.15;23.65;;;0.80;81.20;;;;;;4788436;29;20055;-71
2022/03/08 00:58:08;;;;;;;43.20;24.55;;;0.80;81.50;;;;;;4804656;29;20418;-71
2022/03/08 01:00:38;;;;;;;41.42;23.30;;;0.80;81.50;;;;;;4803826;29;20054;-72
2022/03/08 01:03:07;;;;;;;42.75;23.63;;;0.80;81.50;;;;;;4805287;29;20058;-72
2022/03/08 01:05:35;;;;;;;37.80;23.60;;;0.70;81.50;;;;;;4807074;29;20058;-72
2022/03/08 01:08:04;;;;;;;46.03;24.15;;;0.70;81.60;;;;;;4807130;29;20055;-72
2022/03/08 01:10:32;;;;;;;38.88;22.98;;;0.70;81.60;;;;;;4807035;29;20046;-71
2022/03/08 01:13:00;;;;;;;43.28;24.13;;;0.70;81.60;;;;;;4802329;29;20506;-70
2022/03/08 01:15:28;;;;;;;43.40;23.73;;;0.70;81.70;;;;;;4807723;29;20054;-71
2022/03/08 01:17:56;;;;;;;45.20;24.58;;;0.70;81.70;;;;;;4806245;29;20058;-71
2022/03/08 01:20:25;;;;;;;40.17;20.77;;;0.70;81.90;;;;;;4807730;29;20496;-71
2022/03/08 01:22:54;;;;;;;44.88;23.52;;;0.70;81.80;;;;;;4808050;29;20501;-71
2022/03/08 01:25:22;;;;;;;41.95;23.83;;;0.70;81.90;;;;;;4815595;29;20531;-71
2022/03/08 01:27:54;;;;;;;41.42;23.42;;;0.70;81.70;;;;;;4803717;29;20043;-71
2022/03/08 01:30:23;;;;;;;35.15;19.10;;;0.60;81.80;;;;;;4806634;29;20055;-70
2022/03/08 01:32:51;;;;;;;43.50;24.08;;;0.70;81.80;;;;;;4805293;29;20075;-71
2022/03/08 01:35:19;;;;;;;41.67;21.55;;;0.60;81.80;;;;;;4807413;29;20058;-72
2022/03/08 01:37:48;;;;;;;40.38;23.05;;;0.60;81.70;;;;;;4806877;29;20051;-71
2022/03/08 01:40:16;;;;;;;38.38;22.48;;;0.60;81.80;;;;;;4805931;29;20523;-71
2022/03/08 01:42:47;;;;;;;37.85;22.88;;;0.50;81.70;;;;;;4791607;29;20525;-71
2022/03/08 01:45:17;;;;;;;37.70;22.85;;;0.50;81.70;;;;;;4805726;29;20501;-71
2022/03/08 01:47:45;;;;;;;38.85;23.52;;;0.50;81.60;;;;;;4806996;29;20066;-71
2022/03/08 01:50:14;;;;;;;40.22;22.92;;;0.40;81.60;;;;;;4806207;29;20058;-71
2022/03/08 01:52:42;;;;;;;36.17;21.70;;;0.40;81.60;;;;;;4806285;29;20431;-70
2022/03/08 01:55:11;;;;;;;41.05;22.30;;;0.30;81.70;;;;;;4807421;29;20061;-71
2022/03/08 01:57:39;;;;;;;43.58;22.50;;;0.30;81.70;;;;;;4806967;29;20058;-70
2022/03/08 02:00:11;;;;;;;38.88;22.45;;;0.30;81.60;;;;;;4804618;29;20042;-71
2022/03/08 02:02:40;;;;;;;34.25;20.83;;;0.40;81.50;;;;;;4807267;29;20065;-71
2022/03/08 02:05:10;;;;;;;41.25;22.10;;;0.40;81.50;;;;;;4806877;29;20051;-71
2022/03/08 02:07:38;;;;;;;35.88;20.83;;;0.40;81.30;;;;;;4807239;29;20054;-71
2022/03/08 02:10:07;;;;;;;35.90;21.83;;;0.50;81.20;;;;;;4807435;29;20055;-71
2022/03/08 02:12:35;;;;;;;39.45;22.48;;;0.40;81.10;;;;;;4807178;29;20055;-71
2022/03/08 02:15:12;;;;;;;33.70;21.13;;;0.40;81.10;;;;;;4805189;29;20063;-71
2022/03/08 02:17:40;;;;;;;40.33;21.73;;;0.40;81.00;;;;;;4806397;29;20049;-71
2022/03/08 02:20:10;;;;;;;35.38;20.77;;;0.30;80.90;;;;;;4818439;29;20051;-71
2022/03/08 02:22:46;;;;;;;35.47;20.85;;;0.30;80.90;;;;;;4806944;29;20520;-71
2022/03/08 02:25:15;;;;;;;35.42;19.55;;;0.20;81.00;;;;;;4806738;29;20051;-70
2022/03/08 02:27:48;;;;;;;32.30;19.92;;;0.20;81.10;;;;;;4804600;29;20051;-70
2022/03/08 02:30:17;;;;;;;37.05;19.98;;;0.20;81.30;;;;;;4806740;29;20047;-70
2022/03/08 02:32:48;;;;;;;35.15;20.88;;;0.20;81.20;;;;;;4806157;29;20650;-70
2022/03/08 02:35:19;;;;;;;36.28;21.58;;;0.10;81.20;;;;;;4806738;29;20063;-71
2022/03/08 02:37:50;;;;;;;35.80;20.88;;;0.10;81.30;;;;;;4806033;29;20161;-71
2022/03/08 02:40:20;;;;;;;36.25;20.55;;;0.00;81.30;;;;;;4806382;29;20055;-70
2022/03/08 02:42:48;;;;;;;34.40;18.48;;;0.00;81.30;;;;;;4805082;29;20122;-70
2022/03/08 02:45:17;;;;;;;37.22;21.23;;;0.00;81.40;;;;;;4804942;29;20410;-70
2022/03/08 02:47:45;;;;;;;39.55;21.40;;;0.00;81.50;;;;;;4806229;29;20497;-71
2022/03/08 02:50:15;;;;;;;37.65;20.60;;;0.00;81.40;;;;;;4806499;29;20055;-71
2022/03/08 02:52:46;;;;;;;35.92;20.35;;;0.00;81.50;;;;;;4806358;29;20047;-70
2022/03/08 02:55:14;;;;;;;45.30;20.52;;;0.00;81.50;;;;;;4805956;29;20065;-70
2022/03/08 02:57:42;;;;;;;35.78;21.17;;;0.00;81.60;;;;;;4806444;29;20054;-71
2022/03/08 03:00:12;;;;;;;42.97;20.13;;;0.00;81.70;;;;;;4807834;29;20498;-70
2022/03/08 03:02:40;;;;;;;34.05;20.65;;;-0.10;81.50;;;;;;4807235;29;20069;-70
2022/03/08 03:05:08;;;;;;;35.78;16.63;;;-0.10;81.60;;;;;;4805920;29;20414;-70
2022/03/08 03:07:37;;;;;;;36.45;19.13;;;-0.10;81.60;;;;;;4806081;29;20075;-70
2022/03/08 03:10:07;;;;;;;31.65;19.30;;;-0.10;81.60;;;;;;4806084;29;20046;-70
2022/03/08 03:12:34;;;;;;;36.83;20.60;;;-0.10;81.50;;;;;;4805562;29;20073;-72
2022/03/08 03:15:04;;;;;;;40.63;21.13;;;-0.10;81.40;;;;;;4804880;29;20051;-70
2022/03/08 03:17:32;;;;;;;38.40;20.83;;;-0.10;81.40;;;;;;4805455;29;20512;-71
2022/03/08 03:20:00;;;;;;;37.30;21.20;;;-0.10;81.60;;;;;;4801016;29;20054;-70
2022/03/08 03:22:28;;;;;;;37.92;19.75;;;-0.10;81.50;;;;;;4805826;29;20055;-71
2022/03/08 03:24:55;;;;;;;37.13;20.95;;;-0.10;81.40;;;;;;4803890;29;20054;-70
2022/03/08 03:27:23;;;;;;;38.25;20.10;;;-0.10;81.50;;;;;;4805088;29;20661;-71
2022/03/08 03:29:50;;;;;;;39.70;21.83;;;-0.10;81.40;;;;;;4805745;29;20062;-71
2022/03/08 03:32:19;;;;;;;32.53;18.65;;;-0.20;81.40;;;;;;4805741;29;20054;-71
2022/03/08 03:34:47;;;;;;;36.03;20.17;;;-0.10;81.50;;;;;;4804341;29;20046;-71
2022/03/08 03:37:14;;;;;;;36.78;20.25;;;-0.10;81.40;;;;;;4805365;29;20070;-71
2022/03/08 03:39:42;;;;;;;35.67;20.80;;;-0.10;81.30;;;;;;4803223;29;20046;-71
2022/03/08 03:42:09;;;;;;;37.08;20.20;;;0.00;81.30;;;;;;4805423;29;20057;-71
2022/03/08 03:44:37;;;;;;;38.40;20.70;;;-0.10;81.20;;;;;;4805048;29;20054;-71
2022/03/08 03:47:05;;;;;;;36.88;20.85;;;-0.10;81.20;;;;;;4804647;29;20066;-71
2022/03/08 03:49:33;;;;;;;37.25;21.33;;;-0.10;81.20;;;;;;4803659;29;20517;-71
2022/03/08 03:52:01;;;;;;;39.55;20.83;;;-0.10;81.10;;;;;;4804915;29;20081;-71
2022/03/08 03:54:29;;;;;;;39.33;21.13;;;-0.10;81.20;;;;;;4804689;29;20401;-71
2022/03/08 03:56:56;;;;;;;39.28;19.75;;;-0.20;81.30;;;;;;4803922;29;20066;-71
2022/03/08 03:59:24;;;;;;;35.38;20.88;;;-0.20;81.30;;;;;;4805234;29;20054;-71
2022/03/08 04:01:52;;;;;;;36.55;21.17;;;-0.20;81.30;;;;;;4819302;29;20383;-71
2022/03/08 04:04:19;;;;;;;41.25;21.48;;;-0.10;81.40;;;;;;4804793;29;20512;-71
2022/03/08 04:06:47;;;;;;;35.72;21.92;;;-0.10;81.40;;;;;;4805382;29;20509;-71
2022/03/08 04:09:14;;;;;;;38.13;21.20;;;-0.10;81.30;;;;;;4805378;29;20046;-71
2022/03/08 04:11:42;;;;;;;41.67;21.23;;;-0.10;81.20;;;;;;4802841;29;20058;-71
2022/03/08 04:14:10;;;;;;;34.63;20.83;;;-0.10;81.10;;;;;;4804928;29;20055;-71
2022/03/08 04:16:37;;;;;;;37.05;20.27;;;-0.10;81.10;;;;;;4803054;29;20058;-71
2022/03/08 04:19:05;;;;;;;39.15;20.85;;;-0.20;81.20;;;;;;4804683;29;20054;-71
2022/03/08 04:21:33;;;;;;;40.58;22.25;;;-0.20;81.30;;;;;;4818860;29;20630;-71
2022/03/08 04:24:00;;;;;;;35.65;20.85;;;-0.30;81.40;;;;;;4803168;29;20077;-71
2022/03/08 04:26:28;;;;;;;40.83;22.35;;;-0.30;81.40;;;;;;4804661;29;20063;-71
2022/03/08 04:28:55;;;;;;;37.85;20.02;;;-0.30;81.60;;;;;;4804573;29;20039;-72
2022/03/08 04:31:23;;;;;;;41.22;21.45;;;-0.40;81.60;;;;;;4804210;29;20417;-71
2022/03/08 04:33:51;;;;;;;39.00;21.73;;;-0.50;81.70;;;;;;4804808;29;20383;-71
2022/03/08 04:36:18;;;;;;;35.42;21.13;;;-0.50;81.80;;;;;;4804643;29;20042;-71
2022/03/08 04:38:46;;;;;;;39.15;21.38;;;-0.50;81.80;;;;;;4804043;29;20057;-71
2022/03/08 04:41:14;;;;;;;37.70;21.90;;;-0.60;82.00;;;;;;4804453;29;20465;-71
2022/03/08 04:43:43;;;;;;;37.22;20.10;;;-0.60;82.00;;;;;;4788274;29;20084;-71
2022/03/08 04:46:10;;;;;;;43.90;22.60;;;-0.60;82.10;;;;;;4803346;29;20047;-72
2022/03/08 04:48:38;;;;;;;38.33;21.88;;;-0.60;82.20;;;;;;4804631;29;20058;-71
2022/03/08 04:51:05;;;;;;;38.08;21.50;;;-0.60;82.20;;;;;;4804523;29;20074;-71
2022/03/08 04:53:34;;;;;;;34.28;20.08;;;-0.60;82.20;;;;;;4804410;29;20051;-71
2022/03/08 04:56:02;;;;;;;39.63;22.17;;;-0.60;82.30;;;;;;4804118;29;20405;-71
2022/03/08 04:58:31;;;;;;;39.72;21.13;;;-0.60;82.30;;;;;;4804728;29;20058;-71
2022/03/08 05:00:59;;;;;;;41.40;21.85;;;-0.70;82.30;;;;;;4802134;29;20518;-71
2022/03/08 05:03:28;;;;;;;39.17;20.45;;;-0.70;82.40;;;;;;4804072;29;20051;-71
2022/03/08 05:05:56;;;;;;;39.90;20.60;;;-0.70;82.30;;;;;;4788271;29;20398;-71
2022/03/08 05:08:25;;;;;;;33.08;18.92;;;-0.70;82.40;;;;;;4804449;29;20051;-71
2022/03/08 05:10:52;;;;;;;31.60;18.27;;;-0.70;82.40;;;;;;4804256;29;20051;-71
2022/03/08 05:13:20;;;;;;;37.70;20.83;;;-0.70;82.40;;;;;;4803805;29;20062;-72
2022/03/08 05:15:49;;;;;;;39.95;20.60;;;-0.70;82.40;;;;;;4804093;29;20122;-72
2022/03/08 05:18:18;;;;;;;41.22;20.15;;;-0.60;82.40;;;;;;4803080;29;20053;-71
2022/03/08 05:20:45;;;;;;;40.85;19.05;;;-0.70;82.20;;;;;;4804503;29;20054;-71
2022/03/08 05:23:13;;;;;;;43.30;20.73;;;-0.70;82.20;;;;;;4802976;29;20070;-71
2022/03/08 05:25:42;;;;;;;38.05;21.13;;;-0.70;82.30;;;;;;4803429;29;20055;-72
2022/03/08 05:28:09;;;;;;;34.15;15.13;;;-0.60;82.30;;;;;;4803662;29;20058;-71
2022/03/08 05:30:37;;;;;;;42.00;21.23;;;-0.70;82.40;;;;;;4818423;29;20045;-71
2022/03/08 05:33:04;;;;;;;42.83;21.10;;;-0.70;82.40;;;;;;4804301;29;20063;-71
2022/03/08 05:35:32;;;;;;;44.25;20.67;;;-0.70;82.30;;;;;;4802631;29;20047;-71
2022/03/08 05:38:00;;;;;;;41.60;21.33;;;-0.70;82.30;;;;;;4804171;29;20058;-71
2022/03/08 05:40:28;;;;;;;39.22;20.98;;;-0.70;82.30;;;;;;4803073;29;20039;-71
2022/03/08 05:42:58;;;;;;;41.97;21.20;;;-0.70;82.40;;;;;;4804240;29;20063;-71
2022/03/08 05:45:26;;;;;;;38.22;21.45;;;-0.70;82.30;;;;;;4803941;29;20505;-71
2022/03/08 05:47:53;;;;;;;36.75;20.67;;;-0.80;82.20;;;;;;4798485;29;20529;-71
2022/03/08 05:50:21;;;;;;;35.85;20.40;;;-0.80;82.30;;;;;;4805022;29;20417;-72
2022/03/08 05:52:49;;;;;;;41.90;20.50;;;-0.80;82.40;;;;;;4808436;29;20062;-71
2022/03/08 05:55:17;;;;;;;35.80;21.17;;;-0.80;82.40;;;;;;4806618;29;20058;-71
2022/03/08 05:57:44;;;;;;;37.38;21.23;;;-0.90;82.50;;;;;;4805655;29;20055;-72
2022/03/08 06:00:13;;;;;;;36.10;20.05;;;-0.80;82.70;;;;;;4806462;29;20050;-71
2022/03/08 06:02:41;;;;;;;37.15;20.70;;;-0.80;82.60;;;;;;4805890;29;20706;-71
2022/03/08 06:05:09;;;;;;;37.00;20.75;;;-0.80;82.60;;;;;;4803849;29;20059;-71
2022/03/08 06:07:37;;;;;;;45.58;21.05;;;-0.80;82.70;;;;;;4806887;29;20054;-71
2022/03/08 06:10:09;;;;;;;41.10;20.80;;;-0.90;82.70;;;;;;4807073;29;20042;-72
2022/03/08 06:12:37;;;;;;;30.50;16.63;;;-0.80;82.70;;;;;;4803740;29;20047;-71
2022/03/08 06:15:05;;;;;;;36.35;18.30;;;-0.90;82.60;;;;;;4806478;29;20066;-71
2022/03/08 06:17:33;;;;;;;36.95;20.88;;;-0.90;82.60;;;;;;4807068;29;20058;-72
2022/03/08 06:20:01;;;;;;;38.80;20.13;;;-0.80;82.70;;;;;;4806566;29;20074;-71
2022/03/08 06:22:28;;;;;;;37.72;21.65;;;-0.80;82.60;;;;;;4802814;29;20058;-72
2022/03/08 06:24:56;;;;;;;40.47;19.15;;;-0.80;82.60;;;;;;4793435;29;20054;-71
2022/03/08 06:27:24;;;;;;;39.13;20.98;;;-0.80;82.60;;;;;;4806924;29;20051;-71
2022/03/08 06:29:51;;;;;;;41.53;21.48;;;-0.80;82.60;;;;;;4806204;29;20062;-71
2022/03/08 06:32:19;;;;;;;38.05;20.45;;;-0.80;82.60;;;;;;4805635;29;20585;-71
2022/03/08 06:34:50;;;;;;;28.60;16.02;;;-0.80;82.60;;;;;;4805731;29;20051;-72
2022/03/08 06:37:18;;;;;;;35.40;20.38;;;-0.80;82.70;;;;;;4820445;29;20058;-71
2022/03/08 06:39:47;;;;;;;37.60;19.85;;;-0.80;82.60;;;;;;4805203;29;20487;-72
2022/03/08 06:42:15;;;;;;;36.92;19.17;;;-0.80;82.60;;;;;;4806620;29;20483;-72
2022/03/08 06:44:43;;;;;;;35.88;20.05;;;-0.80;82.50;;;;;;4805954;29;20046;-71
2022/03/08 06:47:11;;;;;;;34.55;19.98;;;-0.80;82.40;;;;;;4804915;29;20059;-71
2022/03/08 06:49:41;;;;;;;37.58;19.63;;;-0.80;82.50;;;;;;4806236;29;20251;-71
2022/03/08 06:52:10;;;;;;;40.97;20.25;;;-0.70;82.50;;;;;;4798227;29;20047;-72
2022/03/08 06:54:38;;;;;;;34.88;20.50;;;-0.70;82.50;;;;;;4805966;29;20066;-74
2022/03/08 06:57:06;;;;;;;31.60;17.65;;;-0.70;82.40;;;;;;4804194;29;20043;-71
2022/03/08 06:59:34;;;;;;;40.22;21.08;;;-0.70;82.30;;;;;;4805782;29;20497;-71
2022/03/08 07:02:02;;;;;;;41.97;21.17;;;-0.60;82.20;;;;;;4804487;29;20498;-71
2022/03/08 07:04:29;;;;;;;41.85;21.35;;;-0.60;82.20;;;;;;4803086;29;20078;-71
2022/03/08 07:06:57;;;;;;;43.63;20.85;;;-0.60;82.20;;;;;;4802873;29;20043;-71
2022/03/08 07:09:25;;;;;;;33.65;18.65;;;-0.60;82.10;;;;;;4799260;29;20061;-71
2022/03/08 07:11:53;;;;;;;39.17;20.13;;;-0.60;82.00;;;;;;4799914;29;20047;-71
2022/03/08 07:14:20;;;;;;;36.72;20.77;;;-0.60;81.90;;;;;;4805646;29;20043;-71
2022/03/08 07:16:49;;;;;;;26.35;12.45;;;-0.60;81.90;;;;;;4788635;29;20110;-71
2022/03/08 07:19:19;;;;;;;36.40;19.38;;;-0.50;81.90;;;;;;4805709;29;20054;-70
2022/03/08 07:21:47;;;;;;;37.40;19.30;;;-0.40;81.90;;;;;;4802968;29;20043;-71
2022/03/08 07:24:15;;;;;;;32.75;18.13;;;-0.30;81.60;;;;;;4806047;29;20051;-71
2022/03/08 07:26:43;;;;;;;40.00;21.30;;;-0.20;81.40;;;;;;4804010;29;20555;-70
2022/03/08 07:29:10;;;;;;;37.33;20.10;;;-0.30;81.40;;;;;;4799116;29;20063;-71
2022/03/08 07:31:38;;;;;;;29.63;14.05;;;-0.30;81.30;;;;;;4793802;29;20076;-71
2022/03/08 07:34:06;;;;;;;37.10;19.83;;;-0.30;81.30;;;;;;4802718;29;20063;-71
2022/03/08 07:36:34;;;;;;;35.65;19.10;;;-0.20;81.20;;;;;;4819770;29;20058;-72
2022/03/08 07:39:03;;;;;;;31.10;16.38;;;-0.20;81.20;;;;;;4802470;29;20058;-71
2022/03/08 07:41:31;;;;;;;31.23;18.02;;;-0.20;81.20;;;;;;4799415;29;20053;-71
2022/03/08 07:44:01;;;;;;;37.97;19.67;;;-0.20;81.20;;;;;;4804872;29;20054;-71
2022/03/08 07:46:29;;;;;;;30.13;15.88;;;-0.20;81.20;;;;;;4805813;29;20051;-71
2022/03/08 07:48:57;;;;;;;29.52;18.20;;;-0.10;81.20;;;;;;4805558;29;20059;-72
2022/03/08 07:51:44;;;;;;;32.33;18.45;;;0.00;81.00;;;;;;4788863;29;20054;-71
2022/03/08 07:54:13;;;;;;;35.63;15.10;;;0.00;80.90;;;;;;4787546;29;20066;-72
2022/03/08 07:56:41;;;;;;;38.55;19.38;;;0.00;80.80;;;;;;4787823;30;20410;-71
2022/03/08 07:59:09;;;;;;;32.88;20.20;;;0.00;80.60;;;;;;4795400;29;20482;-72
2022/03/08 08:01:37;;;;;;;43.00;19.70;;;0.10;80.50;;;;;;4797591;29;20039;-72
2022/03/08 08:04:05;;;;;;;33.35;18.98;;;0.20;80.40;;;;;;4802872;29;20065;-71
2022/03/08 08:06:33;;;;;;;35.25;20.85;;;0.20;80.40;;;;;;4803687;29;20521;-72
2022/03/08 08:09:00;;;;;;;37.70;19.90;;;0.30;80.30;;;;;;4786298;30;20063;-72
2022/03/08 08:11:28;;;;;;;32.30;16.77;;;0.30;80.20;;;;;;4788247;29;20051;-71
2022/03/08 08:13:56;;;;;;;32.53;19.00;;;0.40;80.10;;;;;;4792898;29;20054;-71
2022/03/08 08:16:24;;;;;;;35.55;18.98;;;0.50;80.00;;;;;;4803428;29;20059;-71
2022/03/08 08:18:53;;;;;;;29.15;17.77;;;0.60;79.90;;;;;;4816260;29;20062;-69
2022/03/08 08:21:21;;;;;;;30.17;18.02;;;0.70;79.70;;;;;;4801739;29;20066;-71
2022/03/08 08:23:55;;;;;;;36.17;18.73;;;0.70;79.50;;;;;;4791609;29;20055;-71
2022/03/08 08:26:22;;;;;;;37.20;20.13;;;0.80;79.30;;;;;;4795843;29;20062;-70
2022/03/08 08:28:50;;;;;;;31.70;19.95;;;0.90;79.20;;;;;;4787204;30;20047;-71
2022/03/08 08:31:18;;;;;;;32.58;17.60;;;0.90;79.10;;;;;;4793870;29;20387;-71
2022/03/08 08:33:47;;;;;;;33.45;19.80;;;1.00;78.90;;;;;;4804061;29;20055;-71
2022/03/08 08:36:15;;;;;;;30.45;18.58;;;1.10;78.80;;;;;;4802876;29;20510;-70
2022/03/08 08:38:43;;;;;;;38.67;19.60;;;1.20;78.70;;;;;;4803143;29;20494;-70
2022/03/08 08:41:10;;;;;;;37.22;20.48;;;1.30;78.60;;;;;;4804137;29;20061;-70
2022/03/08 08:43:38;;;;;;;38.08;18.92;;;1.30;78.50;;;;;;4803586;29;20502;-71
2022/03/08 08:46:07;;;;;;;30.65;17.15;;;1.30;78.30;;;;;;4805069;29;20054;-70
2022/03/08 08:48:35;;;;;;;38.95;21.27;;;1.50;78.10;;;;;;4805050;29;20066;-71
2022/03/08 08:51:03;;;;;;;36.08;19.52;;;1.50;77.90;;;;;;4805001;29;20106;-71
2022/03/08 08:53:31;;;;;;;33.60;18.38;;;1.60;77.70;;;;;;4800603;29;20066;-71
2022/03/08 08:55:59;;;;;;;35.50;21.15;;;1.70;77.70;;;;;;4804752;29;20067;-71
2022/03/08 08:58:27;;;;;;;35.70;20.27;;;1.70;77.50;;;;;;4804925;29;20425;-71
2022/03/08 09:00:55;;;;;;;35.60;19.40;;;1.80;77.50;;;;;;4803297;29;20079;-71
2022/03/08 09:03:23;;;;;;;33.65;18.17;;;1.90;77.30;;;;;;4804604;29;20055;-71
2022/03/08 09:05:51;;;;;;;32.13;20.13;;;2.00;77.00;;;;;;4803720;29;20501;-72
2022/03/08 09:08:24;;;;;;;34.72;20.55;;;2.10;76.70;;;;;;4804486;29;20054;-71
2022/03/08 09:10:53;;;;;;;35.35;17.58;;;2.10;76.50;;;;;;4804867;29;20046;-71
2022/03/08 09:13:22;;;;;;;44.40;19.77;;;2.20;76.30;;;;;;4804711;29;20514;-71
2022/03/08 09:15:51;;;;;;;32.67;18.67;;;2.30;76.00;;;;;;4804085;29;20051;-70
2022/03/08 09:18:19;;;;;;;32.10;19.60;;;2.40;75.90;;;;;;4803323;29;20047;-70
2022/03/08 09:20:46;;;;;;;33.35;19.80;;;2.50;75.90;;;;;;4803290;29;20502;-70
2022/03/08 09:23:14;;;;;;;35.00;19.80;;;2.50;75.70;;;;;;4803630;29;20069;-71
2022/03/08 09:25:42;;;;;;;33.45;19.63;;;2.60;75.40;;;;;;4806527;29;20401;-70
2022/03/08 09:28:10;;;;;;;37.88;21.08;;;2.70;75.00;;;;;;4808185;29;20371;-70
2022/03/08 09:30:38;;;;;;;36.63;20.10;;;2.80;74.90;;;;;;4808035;29;20054;-71
2022/03/08 09:33:06;;;;;;;29.55;16.20;;;2.80;74.90;;;;;;4795114;29;20055;-70
2022/03/08 09:35:34;;;;;;;34.35;19.90;;;2.90;74.70;;;;;;4790107;30;20059;-70
2022/03/08 09:38:02;;;;;;;30.33;18.63;;;3.00;74.50;;;;;;4812647;29;20070;-71
2022/03/08 09:40:31;;;;;;;35.10;20.10;;;3.10;74.50;;;;;;4807650;29;20070;-70
2022/03/08 09:42:59;;;;;;;32.88;20.13;;;3.20;74.30;;;;;;4802099;29;20047;-70
2022/03/08 09:45:26;;;;;;;34.83;18.98;;;3.30;74.10;;;;;;4789763;29;20051;-71
2022/03/08 09:47:54;;;;;;;33.13;19.60;;;3.40;73.70;;;;;;4807787;29;20417;-70
2022/03/08 09:50:22;;;;;;;36.42;20.73;;;3.50;73.40;;;;;;4806888;29;20061;-71
2022/03/08 09:52:53;;;;;;;35.30;20.15;;;3.50;73.30;;;;;;4795728;29;20051;-71
2022/03/08 09:55:21;;;;;;;33.35;20.05;;;3.70;73.20;;;;;;4797513;29;20068;-70
2022/03/08 09:57:49;;;;;;;38.22;21.48;;;3.70;73.10;;;;;;4807008;29;20035;-71
2022/03/08 10:00:17;;;;;;;31.20;16.85;;;3.80;73.10;;;;;;4806531;29;20050;-70
2022/03/08 10:02:57;;;;;;;32.70;19.38;;;3.90;73.10;;;;;;4804243;29;20046;-70
2022/03/08 10:05:27;;;;;;;34.67;19.45;;;4.00;72.60;;;;;;4798100;29;20051;-69
2022/03/08 10:08:10;;;;;;;32.72;19.23;;;4.10;72.10;;;;;;4793126;29;20054;-70
2022/03/08 10:10:53;;;;;;;31.27;18.00;;;4.20;72.00;;;;;;4807374;29;20386;-70
2022/03/08 10:13:24;;;;;;;37.03;20.02;;;4.30;71.80;;;;;;4806750;29;20502;-70
2022/03/08 10:16:08;;;;;;;34.00;19.38;;;4.30;71.30;;;;;;4820856;29;20509;-70
2022/03/08 10:18:39;;;;;;;35.08;19.85;;;4.40;70.90;;;;;;4806883;29;20074;-70
2022/03/08 10:21:29;;;;;;;35.45;19.45;;;4.40;70.60;;;;;;4807090;29;20085;-71
2022/03/08 10:24:13;;;;;;;36.50;20.55;;;4.50;70.50;;;;;;4801331;29;20051;-71
2022/03/08 10:26:54;;;;;;;33.75;18.48;;;4.60;70.50;;;;;;4807039;29;20413;-71
2022/03/08 10:29:26;;;;;;;32.83;19.77;;;4.80;70.30;;;;;;4806998;29;20058;-71
2022/03/08 10:32:20;;;;;;;35.55;20.30;;;4.80;69.90;;;;;;4807066;29;20050;-71
2022/03/08 10:34:50;;;;;;;34.03;19.60;;;5.00;69.80;;;;;;4807184;29;20051;-71
2022/03/08 10:37:23;;;;;;;33.63;20.05;;;5.20;69.50;;;;;;4806221;29;20069;-71
2022/03/08 10:39:57;;;;;;;36.33;19.73;;;5.30;68.70;;;;;;4819983;29;20413;-70
2022/03/08 10:42:28;;;;;;;34.30;20.23;;;5.40;68.60;;;;;;4805713;29;20058;-71
2022/03/08 10:45:07;;;;;;;32.85;18.95;;;5.50;68.20;;;;;;4805680;29;20054;-71
2022/03/08 10:47:41;;;;;;;35.05;20.48;;;5.70;67.90;;;;;;4806131;29;20047;-71
2022/03/08 10:50:12;;;;;;;30.63;17.83;;;5.80;67.70;;;;;;4820834;29;20524;-70
2022/03/08 10:52:42;;;;;;;31.60;17.52;;;5.90;67.50;;;;;;4806957;29;20058;-70
2022/03/08 10:55:16;;;;;;;30.52;17.77;;;6.10;66.90;;;;;;4806738;29;20405;-70
2022/03/08 10:57:50;;;;;;;28.92;18.30;;;6.20;66.40;;;;;;4806965;29;20058;-70
2022/03/08 11:00:20;;;;;;;34.63;20.42;;;6.30;66.10;;;;;;4806554;29;20065;-70
2022/03/08 11:02:49;;;;;;;32.85;18.58;;;6.50;65.60;;;;;;4806673;29;20058;-70
2022/03/08 11:05:18;;;;;;;35.63;19.42;;;6.60;65.10;;;;;;4807114;29;20051;-70
2022/03/08 11:07:47;;;;;;;32.50;19.55;;;6.70;64.80;;;;;;4807220;29;20058;-70
2022/03/08 11:10:16;;;;;;;39.97;18.23;;;6.80;64.40;;;;;;4820430;29;20066;-71
2022/03/08 11:12:45;;;;;;;28.95;17.48;;;7.00;63.90;;;;;;4805364;29;20058;-70
2022/03/08 11:15:15;;;;;;;34.58;19.13;;;7.10;63.60;;;;;;4806122;29;20489;-70
2022/03/08 11:17:45;;;;;;;37.53;20.88;;;7.30;63.30;;;;;;4806547;29;20055;-70
2022/03/08 11:20:16;;;;;;;32.72;19.90;;;7.30;62.70;;;;;;4806293;29;20059;-70
2022/03/08 11:22:46;;;;;;;35.40;19.50;;;7.50;62.70;;;;;;4806204;29;20471;-70
2022/03/08 11:25:16;;;;;;;31.85;19.35;;;7.70;62.50;;;;;;4790248;29;20532;-70
2022/03/08 11:28:05;;;;;;;28.83;19.58;;;7.80;61.80;;;;;;4806245;29;20039;-70
2022/03/08 11:30:47;;;;;;;40.63;19.77;;;7.80;61.10;;;;;;4806339;29;20455;-70
2022/03/08 11:33:33;;;;;;;32.30;19.95;;;8.00;60.80;;;;;;4805677;29;20055;-70
2022/03/08 11:36:12;;;;;;;30.20;19.20;;;8.10;60.20;;;;;;4805813;29;20058;-70
2022/03/08 11:38:40;;;;;;;28.08;18.90;;;8.30;59.80;;;;;;4804959;29;20489;-70
2022/03/08 11:41:07;;;;;;;30.83;18.42;;;8.30;59.50;;;;;;4805858;29;20050;-71
2022/03/08 11:43:44;;;;;;;33.05;19.08;;;8.50;59.30;;;;;;4806168;29;20051;-70
2022/03/08 11:46:20;;;;;;;33.17;19.13;;;8.70;59.30;;;;;;4805819;29;20510;-70
2022/03/08 11:49:02;;;;;;;26.85;17.40;;;8.90;58.40;;;;;;4805833;29;20054;-69
2022/03/08 11:51:31;;;;;;;30.25;19.35;;;9.00;58.20;;;;;;4806088;29;20061;-71
2022/03/08 11:54:08;;;;;;;33.88;18.45;;;9.10;57.30;;;;;;4805660;29;20054;-70
2022/03/08 11:56:47;;;;;;;29.77;19.10;;;9.10;56.90;;;;;;4819126;29;20046;-70
2022/03/08 11:59:15;;;;;;;29.23;18.70;;;9.10;57.20;;;;;;4803401;29;20047;-70
2022/03/08 12:01:43;;;;;;;30.88;18.02;;;9.20;57.20;;;;;;4788836;29;20070;-70
2022/03/08 12:04:13;;;;;;;28.17;18.25;;;9.40;57.30;;;;;;4791389;29;20046;-70
2022/03/08 12:06:47;;;;;;;30.45;19.15;;;9.60;56.30;;;;;;4805801;29;20529;-71
2022/03/08 12:09:18;;;;;;;31.80;19.20;;;9.70;55.90;;;;;;4794006;29;20051;-70
2022/03/08 12:11:56;;;;;;;26.45;18.10;;;9.90;55.80;;;;;;4786489;30;20054;-71
2022/03/08 12:14:30;;;;;;;27.67;16.77;;;10.20;55.60;;;;;;4786356;29;20051;-70
2022/03/08 12:17:06;;;;;;;29.23;18.83;;;10.50;54.10;;;;;;4795923;29;20046;-70
2022/03/08 12:19:37;;;;;;;28.10;19.17;;;10.80;52.80;;;;;;4805165;29;20058;-70
2022/03/08 12:22:15;;;;;;;24.20;17.50;;;10.90;52.70;;;;;;4805389;29;20046;-70
2022/03/08 12:24:46;;;;;;;24.15;18.00;;;11.30;52.30;;;;;;4805335;29;20402;-71
2022/03/08 12:27:15;;;;;;;28.15;19.50;;;11.50;51.20;;;;;;4805149;29;20065;-71
2022/03/08 12:30:05;;;;;;;28.92;18.90;;;11.80;50.40;;;;;;4805140;29;20043;-70
2022/03/08 12:32:35;;;;;;;30.17;18.55;;;11.80;50.10;;;;;;4805041;29;20059;-71
2022/03/08 12:35:13;;;;;;;30.63;18.33;;;11.60;50.90;;;;;;4819498;29;20051;-71
2022/03/08 12:37:47;;;;;;;33.10;18.73;;;11.30;50.50;;;;;;4804212;29;20050;-71
2022/03/08 12:40:24;;;;;;;28.40;18.90;;;10.80;51.30;;;;;;4803931;29;20063;-71
2022/03/08 12:42:53;;;;;;;31.05;19.35;;;10.70;52.30;;;;;;4804088;29;20058;-72
2022/03/08 12:45:35;;;;;;;31.38;18.90;;;11.10;51.80;;;;;;4803854;29;20050;-71